Rechercher aéroport 
image banner adimage banner ad
image banner ad

SSBD - Sobradinho Airport

Situé à Sobradinho, Brazil

ICAO - SSBD, IATA -

Données fournies par Airmate  

Information générale

Coordonnées: S29°23'47" W52°59'30"
Élévation : 1443 feet MSL.
Variation magnétique : -16° East
Voir autres Aéroports à Rio Grande do Sul

Données opérationnelles

Accessible au public
Heure actuelle UTC:
Heure actuelle locale:
Météo à : SBSM - Santa Maria Airport ( 76 km )
TAF: TAF SBSM 280300Z 2806/2818 12007KT 9999 BKN015 TN20/2809Z TX26/2817Z TEMPO 2806/2809 4000 SHRA BR BKN012 BKN020 FEW030TCU PROB40 2809/2811 4000 BR BKN006 BECMG 2811/2813 BKN030 PROB40 TEMPO 2816/2818 4000 TSRA BKN020 FEW030CB RMK PDJ
Voir NOTAMs / SUP AIP / TFR affectant cet aéroport [VIEW]
Fréquences de communication: [VIEW]

Pistes:

Coordonnées de l'aéroport

Adresse: Sobradinho Brazil

Vue satellite de SSBD